createdAt,value
2023-04-08T00:00:45.000Z,56.85
2023-04-08T00:03:11.547Z,56.93
2023-04-08T00:05:38.293Z,56.60
2023-04-08T00:08:05.601Z,56.24
2023-04-08T00:10:32.014Z,56.35
2023-04-08T00:12:58.397Z,56.43
2023-04-08T00:15:24.798Z,55.97
2023-04-08T00:17:51.351Z,56.38
2023-04-08T00:20:17.821Z,56.31
2023-04-08T00:22:44.201Z,55.68
2023-04-08T00:25:10.779Z,55.53
2023-04-08T00:27:37.185Z,55.77
2023-04-08T00:30:03.977Z,55.62
2023-04-08T00:32:30.387Z,55.79
2023-04-08T00:34:56.826Z,55.75
2023-04-08T00:37:23.562Z,55.78
2023-04-08T00:39:49.915Z,55.37
2023-04-08T00:42:17.675Z,55.39
2023-04-08T00:44:44.088Z,55.57
2023-04-08T00:47:14.754Z,55.41
2023-04-08T00:49:41.917Z,55.28
2023-04-08T00:52:08.427Z,55.88
2023-04-08T00:54:36.690Z,55.60
2023-04-08T00:57:04.615Z,55.50
2023-04-08T00:59:31.896Z,55.54
2023-04-08T01:02:15.651Z,55.30
2023-04-08T01:04:55.927Z,54.92
2023-04-08T01:07:27.118Z,55.48
2023-04-08T01:09:57.264Z,55.13
2023-04-08T01:12:29.850Z,55.62
2023-04-08T01:15:04.754Z,55.67
2023-04-08T01:17:32.684Z,55.54
2023-04-08T01:20:01.677Z,55.30
2023-04-08T01:22:43.808Z,55.28
2023-04-08T01:25:19.236Z,55.09
2023-04-08T01:27:48.377Z,55.20
2023-04-08T01:30:17.375Z,55.08
2023-04-08T01:32:45.251Z,55.68
2023-04-08T01:35:12.255Z,55.30
2023-04-08T01:37:40.075Z,55.37
2023-04-08T01:40:08.906Z,55.17
2023-04-08T01:42:36.720Z,55.35
2023-04-08T01:45:04.170Z,55.39
2023-04-08T01:47:31.494Z,55.22
2023-04-08T01:49:59.764Z,55.16
2023-04-08T01:52:28.589Z,54.79
2023-04-08T01:54:55.055Z,55.10
2023-04-08T01:57:24.607Z,54.84
2023-04-08T01:59:53.504Z,55.03
2023-04-08T02:02:26.566Z,54.94
2023-04-08T02:04:55.926Z,54.84
2023-04-08T02:07:22.347Z,55.13
2023-04-08T02:09:48.710Z,55.25
2023-04-08T02:12:15.337Z,55.14
2023-04-08T02:14:41.865Z,55.10
2023-04-08T02:17:12.513Z,54.78
2023-04-08T02:19:48.692Z,55.05
2023-04-08T02:22:26.465Z,54.99
2023-04-08T02:24:53.185Z,55.25
2023-04-08T02:27:20.538Z,55.12
2023-04-08T02:29:49.304Z,55.57
2023-04-08T02:32:16.927Z,55.70
2023-04-08T02:34:43.619Z,55.34
2023-04-08T02:37:10.369Z,55.53
2023-04-08T02:39:36.790Z,55.03
2023-04-08T02:42:04.940Z,55.42
2023-04-08T02:44:31.456Z,55.08
2023-04-08T02:46:57.830Z,55.39
2023-04-08T02:49:24.242Z,55.57
2023-04-08T02:51:50.660Z,55.74
2023-04-08T02:54:17.048Z,55.73
2023-04-08T02:56:43.792Z,55.37
2023-04-08T02:59:10.388Z,55.93
2023-04-08T03:01:37.171Z,55.95
2023-04-08T03:04:03.855Z,55.83
2023-04-08T03:06:31.833Z,56.28
2023-04-08T03:08:58.204Z,56.30
2023-04-08T03:11:24.671Z,56.32
2023-04-08T03:13:51.193Z,55.93
2023-04-08T03:16:17.902Z,56.46
2023-04-08T03:18:44.261Z,56.21
2023-04-08T03:21:10.686Z,56.15
2023-04-08T03:23:37.054Z,56.28
2023-04-08T03:26:03.778Z,56.05
2023-04-08T03:28:30.282Z,56.20
2023-04-08T03:30:56.839Z,56.41
2023-04-08T03:33:23.255Z,56.17
2023-04-08T03:35:49.708Z,56.48
2023-04-08T03:38:16.773Z,56.15
2023-04-08T03:40:43.143Z,56.01
2023-04-08T03:43:11.654Z,56.55
2023-04-08T03:45:38.100Z,56.43
2023-04-08T03:48:04.715Z,56.62
2023-04-08T03:50:31.081Z,56.56
2023-04-08T03:52:57.470Z,56.55
2023-04-08T03:55:23.902Z,56.83
2023-04-08T03:57:50.744Z,56.68
2023-04-08T04:00:17.130Z,56.80
2023-04-08T04:02:43.850Z,56.51
2023-04-08T04:05:10.309Z,56.83
2023-04-08T04:07:37.091Z,57.30
2023-04-08T04:10:03.737Z,57.19
2023-04-08T04:12:30.675Z,57.32
2023-04-08T04:14:57.081Z,57.21
2023-04-08T04:17:23.479Z,58.26
2023-04-08T04:19:49.855Z,58.34
2023-04-08T04:22:16.269Z,57.97
2023-04-08T04:24:47.041Z,58.35
2023-04-08T04:27:13.431Z,59.04
2023-04-08T04:29:39.785Z,58.66
2023-04-08T04:32:07.121Z,58.88
2023-04-08T04:34:33.478Z,58.66
2023-04-08T04:36:59.855Z,58.53
2023-04-08T04:39:26.378Z,58.66
2023-04-08T04:41:52.763Z,58.57
2023-04-08T04:44:19.724Z,58.81
2023-04-08T04:46:46.233Z,58.88
2023-04-08T04:49:12.691Z,59.01
2023-04-08T04:51:39.068Z,58.68
2023-04-08T04:54:05.485Z,58.77
2023-04-08T04:56:32.080Z,59.12
2023-04-08T04:58:58.483Z,59.43
2023-04-08T05:01:24.921Z,59.19
2023-04-08T05:03:51.823Z,59.44
2023-04-08T05:06:18.199Z,59.57
2023-04-08T05:08:45.042Z,59.33
2023-04-08T05:11:11.581Z,58.64
2023-04-08T05:13:38.307Z,59.07
2023-04-08T05:16:04.911Z,59.14
2023-04-08T05:18:31.321Z,59.19
2023-04-08T05:20:58.603Z,59.12
2023-04-08T05:23:25.488Z,59.47
2023-04-08T05:25:51.938Z,59.50
2023-04-08T05:28:18.840Z,59.48
2023-04-08T05:30:52.148Z,59.31
2023-04-08T05:33:19.564Z,59.90
2023-04-08T05:35:46.667Z,59.83
2023-04-08T05:38:13.275Z,59.59
2023-04-08T05:40:39.695Z,59.67
2023-04-08T05:43:06.344Z,61.86
2023-04-08T05:45:32.741Z,62.47
2023-04-08T05:47:59.577Z,63.93
2023-04-08T05:50:25.984Z,66.06
2023-04-08T05:52:52.950Z,67.23
2023-04-08T05:55:19.357Z,68.64
2023-04-08T05:57:45.928Z,70.23
2023-04-08T06:00:13.192Z,72.37
2023-04-08T06:02:39.738Z,73.57
2023-04-08T06:05:06.653Z,76.46
2023-04-08T06:07:33.996Z,79.21
2023-04-08T06:10:00.557Z,81.55
2023-04-08T06:12:26.921Z,83.20
2023-04-08T06:14:56.523Z,84.85
2023-04-08T06:17:23.144Z,87.39
2023-04-08T06:19:49.746Z,90.57
2023-04-08T06:22:16.388Z,91.91
2023-04-08T06:24:42.781Z,94.20
2023-04-08T06:27:09.328Z,96.20
2023-04-08T06:29:35.898Z,99.00
2023-04-08T06:32:02.443Z,98.89
2023-04-08T06:34:29.161Z,97.21
2023-04-08T06:36:55.811Z,95.60
2023-04-08T06:39:22.245Z,98.45
2023-04-08T06:41:48.702Z,97.47
2023-04-08T06:44:16.043Z,97.83
2023-04-08T06:46:42.431Z,100.00
2023-04-08T06:49:08.985Z,100.00
2023-04-08T06:51:35.460Z,99.83
2023-04-08T06:54:01.964Z,100.00
2023-04-08T06:56:28.377Z,100.00
2023-04-08T06:58:54.848Z,100.00
2023-04-08T07:01:21.343Z,100.00
2023-04-08T07:03:47.908Z,100.00
2023-04-08T07:06:14.513Z,100.00
2023-04-08T07:08:41.182Z,100.00
2023-04-08T07:11:07.791Z,100.00
2023-04-08T07:13:34.313Z,100.00
2023-04-08T07:16:01.767Z,100.00
2023-04-08T07:18:28.189Z,100.00
2023-04-08T07:20:55.044Z,100.00
2023-04-08T07:23:21.745Z,100.00
2023-04-08T07:25:48.266Z,100.00
2023-04-08T07:28:14.730Z,100.00
2023-04-08T07:30:41.146Z,100.00
2023-04-08T07:33:07.632Z,100.00
2023-04-08T07:35:34.375Z,100.00
2023-04-08T07:38:01.054Z,100.00
2023-04-08T07:40:27.578Z,100.00
2023-04-08T07:42:54.299Z,100.00
2023-04-08T07:45:21.125Z,100.00
2023-04-08T07:47:47.654Z,100.00
2023-04-08T07:50:14.147Z,100.00
2023-04-08T07:52:40.536Z,100.00
2023-04-08T07:55:07.411Z,100.00
2023-04-08T07:57:33.924Z,100.00
2023-04-08T08:00:00.393Z,100.00
2023-04-08T08:02:26.926Z,100.00
2023-04-08T08:04:53.463Z,100.00
2023-04-08T08:07:19.870Z,100.00
2023-04-08T08:09:46.548Z,100.00
2023-04-08T08:12:12.961Z,100.00
2023-04-08T08:14:39.673Z,100.00
2023-04-08T08:17:06.040Z,100.00
2023-04-08T08:19:32.860Z,100.00
2023-04-08T08:21:59.250Z,100.00
2023-04-08T08:24:26.220Z,100.00
2023-04-08T08:26:52.619Z,100.00
2023-04-08T08:29:19.491Z,100.00
2023-04-08T08:31:46.240Z,100.00
2023-04-08T08:34:12.788Z,100.00
2023-04-08T08:36:39.178Z,100.00
2023-04-08T08:39:05.601Z,100.00
2023-04-08T08:41:36.831Z,100.00
2023-04-08T08:44:05.761Z,100.00
2023-04-08T08:46:32.342Z,100.00
2023-04-08T08:48:59.058Z,100.00
2023-04-08T08:51:26.253Z,100.00
2023-04-08T08:53:52.796Z,100.00
2023-04-08T08:56:19.389Z,100.00
2023-04-08T08:58:47.541Z,100.00
2023-04-08T09:01:46.695Z,100.00
2023-04-08T09:04:22.621Z,100.00
2023-04-08T09:06:51.572Z,100.00
2023-04-08T09:09:18.240Z,100.00
2023-04-08T09:11:47.137Z,100.00
2023-04-08T09:14:22.864Z,100.00
2023-04-08T09:16:50.252Z,100.00
2023-04-08T09:19:16.980Z,100.00
2023-04-08T09:21:43.633Z,100.00
2023-04-08T09:24:28.754Z,100.00
2023-04-08T09:26:56.522Z,100.00
2023-04-08T09:29:29.877Z,100.00
2023-04-08T09:32:00.196Z,100.00
2023-04-08T09:34:28.049Z,100.00
2023-04-08T09:36:55.724Z,100.00
2023-04-08T09:39:22.574Z,100.00
2023-04-08T09:41:50.982Z,100.00
2023-04-08T09:44:19.884Z,100.00
2023-04-08T09:46:49.215Z,100.00
2023-04-08T09:49:52.150Z,100.00
2023-04-08T09:52:24.785Z,100.00
2023-04-08T09:55:04.594Z,100.00
2023-04-08T09:57:41.609Z,100.00
2023-04-08T10:00:14.062Z,100.00
2023-04-08T10:03:04.732Z,100.00
2023-04-08T10:05:31.975Z,100.00
2023-04-08T10:07:58.964Z,100.00
2023-04-08T10:10:27.075Z,100.00
2023-04-08T10:12:53.778Z,100.00
2023-04-08T10:15:37.775Z,100.00
2023-04-08T10:18:06.928Z,100.00
2023-04-08T10:20:37.135Z,100.00
2023-04-08T10:23:11.480Z,100.00
2023-04-08T10:25:45.481Z,100.00
2023-04-08T10:28:12.006Z,100.00
2023-04-08T10:30:42.780Z,100.00
2023-04-08T10:33:15.531Z,100.00
2023-04-08T10:35:46.266Z,100.00
2023-04-08T10:38:14.095Z,100.00
2023-04-08T10:40:42.558Z,100.00
2023-04-08T10:43:11.218Z,100.00
2023-04-08T10:45:38.369Z,100.00
2023-04-08T10:48:25.169Z,100.00
2023-04-08T10:51:03.650Z,100.00
2023-04-08T10:53:33.779Z,100.00
2023-04-08T10:56:15.417Z,100.00
2023-04-08T10:58:59.187Z,100.00
2023-04-08T11:01:26.483Z,100.00
2023-04-08T11:03:53.916Z,100.00
2023-04-08T11:06:20.540Z,100.00
2023-04-08T11:08:47.247Z,100.00
2023-04-08T11:11:14.673Z,100.00
2023-04-08T11:13:51.177Z,100.00
2023-04-08T11:16:21.393Z,100.00
2023-04-08T11:18:49.734Z,100.00
2023-04-08T11:21:17.556Z,100.00
2023-04-08T11:23:43.999Z,100.00
2023-04-08T11:26:11.359Z,100.00
2023-04-08T11:28:39.325Z,100.00
2023-04-08T11:31:06.205Z,100.00
2023-04-08T11:33:33.117Z,100.00
2023-04-08T11:36:02.200Z,100.00
2023-04-08T11:38:29.246Z,100.00
2023-04-08T11:40:58.922Z,100.00
2023-04-08T11:43:30.160Z,100.00
2023-04-08T11:45:59.933Z,100.00
2023-04-08T11:48:26.790Z,100.00
2023-04-08T11:51:04.578Z,100.00
2023-04-08T11:53:31.438Z,99.67
2023-04-08T11:55:57.880Z,100.00
2023-04-08T11:58:24.324Z,98.45
2023-04-08T12:00:50.850Z,99.41
2023-04-08T12:03:17.937Z,98.98
2023-04-08T12:05:44.422Z,98.12
2023-04-08T12:08:11.261Z,97.09
2023-04-08T12:10:37.814Z,99.47
2023-04-08T12:13:04.192Z,98.73
2023-04-08T12:15:30.739Z,98.68
2023-04-08T12:17:57.895Z,98.26
2023-04-08T12:20:24.457Z,97.41
2023-04-08T12:22:50.990Z,97.89
2023-04-08T12:25:17.377Z,97.72
2023-04-08T12:27:43.780Z,98.89
2023-04-08T12:30:10.778Z,97.90
2023-04-08T12:32:37.518Z,98.38
2023-04-08T12:35:04.297Z,97.70
2023-04-08T12:37:30.812Z,96.78
2023-04-08T12:39:57.220Z,96.67
2023-04-08T12:42:23.804Z,97.23
2023-04-08T12:44:50.227Z,96.83
2023-04-08T12:47:17.312Z,97.54
2023-04-08T12:49:49.549Z,97.72
2023-04-08T12:52:17.168Z,97.94
2023-04-08T12:54:43.866Z,95.85
2023-04-08T12:57:10.513Z,95.74
2023-04-08T12:59:38.805Z,96.73
2023-04-08T13:02:05.363Z,97.18
2023-04-08T13:04:31.807Z,96.90
2023-04-08T13:06:59.529Z,98.00
2023-04-08T13:09:26.445Z,98.40
2023-04-08T13:11:52.965Z,96.92
2023-04-08T13:14:19.394Z,96.90
2023-04-08T13:16:46.265Z,96.50
2023-04-08T13:19:13.173Z,97.40
2023-04-08T13:21:39.542Z,96.52
2023-04-08T13:24:06.401Z,96.35
2023-04-08T13:26:32.784Z,97.61
2023-04-08T13:28:59.586Z,96.97
2023-04-08T13:31:26.488Z,96.22
2023-04-08T13:33:55.270Z,95.85
2023-04-08T13:36:23.530Z,94.74
2023-04-08T13:38:50.898Z,94.07
2023-04-08T13:41:17.520Z,95.78
2023-04-08T13:43:43.938Z,96.09
2023-04-08T13:46:10.365Z,96.14
2023-04-08T13:48:37.151Z,96.35
2023-04-08T13:51:03.684Z,96.09
2023-04-08T13:53:30.451Z,96.18
2023-04-08T13:55:58.925Z,95.81
2023-04-08T13:58:26.484Z,93.99
2023-04-08T14:00:53.141Z,94.88
2023-04-08T14:03:19.625Z,95.38
2023-04-08T14:05:46.710Z,95.04
2023-04-08T14:08:13.880Z,93.99
2023-04-08T14:10:41.978Z,92.91
2023-04-08T14:13:08.818Z,89.27
2023-04-08T14:15:35.443Z,86.75
2023-04-08T14:18:01.934Z,85.11
2023-04-08T14:20:28.576Z,84.15
2023-04-08T14:22:56.588Z,84.27
2023-04-08T14:25:23.717Z,83.40
2023-04-08T14:27:58.091Z,83.14
2023-04-08T14:30:25.244Z,82.15
2023-04-08T14:32:51.672Z,81.89
2023-04-08T14:35:18.438Z,81.57
2023-04-08T14:37:44.819Z,81.22
2023-04-08T14:40:11.615Z,81.50
2023-04-08T14:42:38.474Z,79.34
2023-04-08T14:45:05.200Z,78.93
2023-04-08T14:47:31.636Z,78.65
2023-04-08T14:49:58.067Z,77.64
2023-04-08T14:52:24.866Z,76.76
2023-04-08T14:54:52.448Z,78.11
2023-04-08T14:57:18.854Z,77.39
2023-04-08T14:59:45.792Z,76.85
2023-04-08T15:02:12.542Z,76.49
2023-04-08T15:04:39.420Z,75.97
2023-04-08T15:07:06.238Z,76.11
2023-04-08T15:09:32.718Z,76.92
2023-04-08T15:11:59.914Z,76.07
2023-04-08T15:14:26.448Z,75.70
2023-04-08T15:16:52.993Z,74.81
2023-04-08T15:19:20.184Z,75.66
2023-04-08T15:21:47.337Z,76.75
2023-04-08T15:24:14.027Z,76.48
2023-04-08T15:26:41.005Z,76.44
2023-04-08T15:29:07.736Z,76.23
2023-04-08T15:31:35.015Z,76.59
2023-04-08T15:34:02.698Z,76.78
2023-04-08T15:36:32.860Z,77.07
2023-04-08T15:38:59.267Z,75.96
2023-04-08T15:41:26.216Z,76.02
2023-04-08T15:43:53.188Z,75.85
2023-04-08T15:46:23.267Z,76.33
2023-04-08T15:48:50.702Z,76.18
2023-04-08T15:51:17.920Z,76.34
2023-04-08T15:53:44.376Z,76.55
2023-04-08T15:56:15.207Z,77.03
2023-04-08T15:58:42.424Z,77.01
2023-04-08T16:01:08.849Z,77.09
2023-04-08T16:03:35.378Z,77.03
2023-04-08T16:06:02.045Z,77.45
2023-04-08T16:08:29.006Z,77.08
2023-04-08T16:11:03.685Z,77.94
2023-04-08T16:13:30.955Z,77.77
2023-04-08T16:15:58.605Z,78.14
2023-04-08T16:18:25.840Z,78.05
2023-04-08T16:20:53.202Z,77.40
2023-04-08T16:23:19.904Z,77.68
2023-04-08T16:25:46.658Z,78.14
2023-04-08T16:28:13.389Z,78.44
2023-04-08T16:30:43.491Z,78.76
2023-04-08T16:33:11.245Z,78.84
2023-04-08T16:35:37.775Z,78.10
2023-04-08T16:38:04.604Z,77.94
2023-04-08T16:40:33.166Z,78.13
2023-04-08T16:43:00.761Z,77.62
2023-04-08T16:45:30.916Z,77.48
2023-04-08T16:47:57.478Z,77.43
2023-04-08T16:50:24.437Z,77.07
2023-04-08T16:52:50.831Z,77.77
2023-04-08T16:55:17.891Z,77.53
2023-04-08T16:57:44.280Z,77.50
2023-04-08T17:00:11.338Z,77.20
2023-04-08T17:02:37.904Z,77.55
2023-04-08T17:05:06.254Z,77.80
2023-04-08T17:07:32.884Z,77.30
2023-04-08T17:09:59.407Z,76.84
2023-04-08T17:12:25.974Z,77.04
2023-04-08T17:14:52.606Z,76.98
2023-04-08T17:17:19.329Z,76.83
2023-04-08T17:19:45.686Z,76.54
2023-04-08T17:22:12.077Z,77.01
2023-04-08T17:24:38.460Z,77.51
2023-04-08T17:27:05.477Z,77.44
2023-04-08T17:29:31.941Z,77.49
2023-04-08T17:31:58.574Z,77.67
2023-04-08T17:34:26.291Z,77.66
2023-04-08T17:36:52.723Z,78.51
2023-04-08T17:39:19.107Z,78.69
2023-04-08T17:41:46.184Z,78.20
2023-04-08T17:44:12.659Z,77.72
2023-04-08T17:46:39.211Z,77.50
2023-04-08T17:49:05.652Z,77.35
2023-04-08T17:51:33.157Z,76.66
2023-04-08T17:53:59.627Z,76.98
2023-04-08T17:56:27.760Z,76.77
2023-04-08T17:58:54.226Z,75.88
2023-04-08T18:01:22.909Z,75.25
2023-04-08T18:03:52.319Z,75.53
2023-04-08T18:06:19.337Z,75.88
2023-04-08T18:08:45.846Z,75.64
2023-04-08T18:11:12.283Z,75.76
2023-04-08T18:13:38.685Z,75.87
2023-04-08T18:16:06.545Z,75.89
2023-04-08T18:18:32.907Z,76.01
2023-04-08T18:20:59.837Z,76.32
2023-04-08T18:23:26.212Z,76.75
2023-04-08T18:25:52.588Z,76.48
2023-04-08T18:28:19.010Z,77.03
2023-04-08T18:30:45.646Z,76.66
2023-04-08T18:33:12.087Z,76.84
2023-04-08T18:35:38.484Z,76.75
2023-04-08T18:38:05.245Z,76.96
2023-04-08T18:40:31.648Z,76.45
2023-04-08T18:43:02.593Z,76.48
2023-04-08T18:45:29.464Z,76.43
2023-04-08T18:47:56.273Z,76.27
2023-04-08T18:50:23.352Z,76.30
2023-04-08T18:52:50.068Z,76.17
2023-04-08T18:55:16.675Z,76.88
2023-04-08T18:57:43.121Z,76.63
2023-04-08T19:00:09.716Z,76.80
2023-04-08T19:02:36.471Z,76.44
2023-04-08T19:05:02.992Z,76.39
2023-04-08T19:07:29.747Z,76.06
2023-04-08T19:09:59.700Z,76.17
2023-04-08T19:12:27.010Z,76.44
2023-04-08T19:14:54.238Z,75.98
2023-04-08T19:17:20.849Z,76.49
2023-04-08T19:19:47.290Z,76.11
2023-04-08T19:22:13.698Z,75.95
2023-04-08T19:24:40.166Z,76.69
2023-04-08T19:27:06.549Z,77.01
2023-04-08T19:29:33.968Z,77.12
2023-04-08T19:32:00.828Z,77.18
2023-04-08T19:34:27.213Z,77.18
2023-04-08T19:36:54.516Z,77.07
2023-04-08T19:39:21.052Z,77.20
2023-04-08T19:41:47.647Z,77.40
2023-04-08T19:44:14.104Z,77.92
2023-04-08T19:46:40.709Z,78.52
2023-04-08T19:49:07.412Z,78.99
2023-04-08T19:51:34.159Z,79.58
2023-04-08T19:54:00.597Z,79.38
2023-04-08T19:56:27.824Z,79.77
2023-04-08T19:58:54.383Z,80.37
2023-04-08T20:01:21.503Z,80.40
2023-04-08T20:03:50.244Z,80.10
2023-04-08T20:06:19.898Z,80.70
2023-04-08T20:08:46.409Z,80.50
2023-04-08T20:11:12.951Z,79.90
2023-04-08T20:13:40.030Z,79.87
2023-04-08T20:16:07.407Z,79.40
2023-04-08T20:18:34.251Z,79.82
2023-04-08T20:21:00.998Z,79.51
2023-04-08T20:23:27.388Z,79.47
2023-04-08T20:25:53.899Z,79.25
2023-04-08T20:28:20.717Z,78.77
2023-04-08T20:30:47.998Z,78.76
2023-04-08T20:33:14.398Z,78.84
2023-04-08T20:35:40.879Z,79.17
2023-04-08T20:38:07.276Z,79.51
2023-04-08T20:40:33.650Z,79.15
2023-04-08T20:43:00.039Z,79.58
2023-04-08T20:45:27.131Z,79.67
2023-04-08T20:47:54.528Z,79.68
2023-04-08T20:50:20.919Z,80.15
2023-04-08T20:52:47.836Z,80.10
2023-04-08T20:55:14.303Z,80.52
2023-04-08T20:57:42.095Z,80.42
2023-04-08T21:00:09.492Z,80.78
2023-04-08T21:02:36.809Z,80.86
2023-04-08T21:05:03.513Z,81.03
2023-04-08T21:07:30.470Z,81.17
2023-04-08T21:09:56.967Z,81.25
2023-04-08T21:12:23.676Z,82.32
2023-04-08T21:14:50.872Z,82.19
2023-04-08T21:17:17.841Z,81.76
2023-04-08T21:19:44.325Z,81.72
2023-04-08T21:22:10.892Z,81.99
2023-04-08T21:24:38.060Z,82.19
2023-04-08T21:27:04.521Z,82.56
2023-04-08T21:29:31.001Z,82.21
2023-04-08T21:31:57.452Z,82.29
2023-04-08T21:34:23.967Z,82.67
2023-04-08T21:36:50.360Z,82.56
2023-04-08T21:39:16.867Z,82.91
2023-04-08T21:41:43.410Z,82.92
2023-04-08T21:44:10.421Z,82.34
2023-04-08T21:46:36.857Z,82.89
2023-04-08T21:49:03.424Z,82.88
2023-04-08T21:51:29.813Z,82.53
2023-04-08T21:53:56.252Z,82.09
2023-04-08T21:56:24.516Z,82.93
2023-04-08T21:58:51.061Z,83.28
2023-04-08T22:01:17.746Z,82.96
2023-04-08T22:03:44.963Z,82.73
2023-04-08T22:06:19.221Z,82.77
2023-04-08T22:08:52.251Z,82.73
2023-04-08T22:11:19.062Z,83.29
2023-04-08T22:13:45.837Z,83.13
2023-04-08T22:16:12.256Z,83.56
2023-04-08T22:18:39.003Z,83.70
2023-04-08T22:21:05.985Z,83.49
2023-04-08T22:23:32.412Z,83.65
2023-04-08T22:25:58.831Z,83.92
2023-04-08T22:28:25.531Z,83.90
2023-04-08T22:30:54.883Z,84.23
2023-04-08T22:33:22.106Z,84.09
2023-04-08T22:35:48.525Z,84.37
2023-04-08T22:38:14.923Z,84.97
2023-04-08T22:40:41.314Z,85.51
2023-04-08T22:43:08.002Z,85.76
2023-04-08T22:45:36.603Z,85.36
2023-04-08T22:48:03.289Z,84.93
2023-04-08T22:50:29.718Z,84.67
2023-04-08T22:52:56.097Z,84.03
2023-04-08T22:55:22.473Z,84.62
2023-04-08T22:57:49.341Z,84.08
2023-04-08T23:00:15.991Z,84.85
2023-04-08T23:02:42.779Z,84.29
2023-04-08T23:05:09.587Z,84.61
2023-04-08T23:07:36.321Z,84.78
2023-04-08T23:10:02.703Z,84.85
2023-04-08T23:12:29.163Z,85.53
2023-04-08T23:14:55.618Z,86.31
2023-04-08T23:17:22.043Z,86.13
2023-04-08T23:19:48.455Z,85.77
2023-04-08T23:22:14.825Z,86.01
2023-04-08T23:24:41.288Z,86.12
2023-04-08T23:27:07.721Z,86.48
2023-04-08T23:29:34.336Z,86.31
2023-04-08T23:32:00.744Z,85.71
2023-04-08T23:34:27.314Z,86.71
2023-04-08T23:36:53.707Z,85.89
2023-04-08T23:39:20.304Z,85.75
2023-04-08T23:41:46.724Z,85.55
2023-04-08T23:44:13.132Z,85.42
2023-04-08T23:46:39.529Z,85.25
2023-04-08T23:49:06.252Z,85.21
2023-04-08T23:51:32.623Z,84.68
2023-04-08T23:53:59.343Z,85.17
2023-04-08T23:56:25.873Z,85.36
2023-04-08T23:58:52.383Z,85.38
